Fecha, hora, temperatura, viento dirección y velocidad, humedad y presión.

  • 13-12-2019 11:00:00 | 15.00°C | Sudoeste |18.00 km/h | 55.00% | 947.30 hPa
  • 13-12-2019 10:00:00 | 13.20°C | Oeste |28.00 km/h | 59.00% | 946.00 hPa
  • 13-12-2019 09:00:00 | 13.10°C | Oeste |55.00 km/h | 56.00% | 945.10 hPa
  • 13-12-2019 08:00:00 | 12.80°C | Oeste |26.00 km/h | 64.00% | 944.10 hPa
  • 13-12-2019 07:00:00 | 13.30°C | Oeste |45.00 km/h | 62.00% | 943.60 hPa
  • 13-12-2019 06:00:00 | 13.90°C | Oeste |32.00 km/h | 64.00% | 943.50 hPa
  • 13-12-2019 05:00:00 | 13.90°C | Oeste |50.00 km/h | 66.00% | 943.80 hPa
  • 13-12-2019 04:00:00 | 12.70°C | Oeste |44.00 km/h | 78.00% | 944.40 hPa
  • 13-12-2019 03:00:00 | 11.10°C | Sudoeste |30.00 km/h | 88.00% | 944.30 hPa
  • 13-12-2019 02:00:00 | 10.70°C | Sudoeste |26.00 km/h | 88.00% | 944.20 hPa
  • 13-12-2019 01:00:00 | 10.60°C | Oeste |30.00 km/h | 88.00% | 944.80 hPa
  • 13-12-2019 00:00:00 | 10.20°C | Sudoeste |32.00 km/h | 89.00% | 945.00 hPa
  • 12-12-2019 23:00:00 | 10.00°C | Sudoeste |24.00 km/h | 87.00% | 945.30 hPa
  • 12-12-2019 22:00:00 | 9.70°C | Sudoeste |26.00 km/h | 86.00% | 944.90 hPa
  • 12-12-2019 21:00:00 | 9.50°C | Sudoeste |28.00 km/h | 86.00% | 945.30 hPa
  • 12-12-2019 20:00:00 | 9.10°C | Sudoeste |31.00 km/h | 87.00% | 945.80 hPa
  • 12-12-2019 19:00:00 | 8.90°C | Sudoeste |35.00 km/h | 88.00% | 945.90 hPa
  • 12-12-2019 18:00:00 | 8.90°C | Sudoeste |36.00 km/h | 84.00% | 946.40 hPa
  • 12-12-2019 17:00:00 | 8.50°C | Sudoeste |35.00 km/h | 82.00% | 946.90 hPa
  • 12-12-2019 16:00:00 | 8.00°C | Sudoeste |35.00 km/h | 82.00% | 947.70 hPa
  • 12-12-2019 15:00:00 | 7.90°C | Sudoeste |30.00 km/h | 82.00% | 948.60 hPa
  • 12-12-2019 14:00:00 | 7.90°C | Sudoeste |30.00 km/h | 78.00% | 949.80 hPa
  • 12-12-2019 13:00:00 | 7.90°C | Sudoeste |17.00 km/h | 74.00% | 950.70 hPa
  • 12-12-2019 12:00:00 | 7.10°C | Sur |18.00 km/h | 76.00% | 952.00 hPa
    • diseño web asturias Información sobre el estado de las mareas, altura de la marejada, temperatura del agua y otros datos de Gijón en Asturias.

      Surf Gijón